sensor_id;sensor_type;location;lat;lon;timestamp;P1;durP1;ratioP1;P2;durP2;ratioP2
21175;SDS011;10746;50.178;8.186;2023-02-11T00:01:38;62.93;;;24.70;;
21175;SDS011;10746;50.178;8.186;2023-02-11T00:04:05;62.77;;;24.47;;
21175;SDS011;10746;50.178;8.186;2023-02-11T00:06:33;73.30;;;24.73;;
21175;SDS011;10746;50.178;8.186;2023-02-11T00:09:01;58.20;;;22.97;;
21175;SDS011;10746;50.178;8.186;2023-02-11T00:11:29;66.70;;;23.90;;
21175;SDS011;10746;50.178;8.186;2023-02-11T00:13:56;57.23;;;24.03;;
21175;SDS011;10746;50.178;8.186;2023-02-11T00:16:23;65.03;;;24.43;;
21175;SDS011;10746;50.178;8.186;2023-02-11T00:18:51;58.80;;;23.40;;
21175;SDS011;10746;50.178;8.186;2023-02-11T00:21:18;64.10;;;24.20;;
21175;SDS011;10746;50.178;8.186;2023-02-11T00:23:47;62.37;;;24.00;;
21175;SDS011;10746;50.178;8.186;2023-02-11T00:26:15;60.50;;;22.90;;
21175;SDS011;10746;50.178;8.186;2023-02-11T00:28:44;59.27;;;22.80;;
21175;SDS011;10746;50.178;8.186;2023-02-11T00:31:12;62.00;;;24.03;;
21175;SDS011;10746;50.178;8.186;2023-02-11T00:33:39;55.27;;;23.83;;
21175;SDS011;10746;50.178;8.186;2023-02-11T00:36:07;54.57;;;22.63;;
21175;SDS011;10746;50.178;8.186;2023-02-11T00:38:36;57.23;;;24.50;;
21175;SDS011;10746;50.178;8.186;2023-02-11T00:41:05;61.93;;;23.50;;
21175;SDS011;10746;50.178;8.186;2023-02-11T00:43:31;63.67;;;25.07;;
21175;SDS011;10746;50.178;8.186;2023-02-11T00:45:58;60.60;;;23.47;;
21175;SDS011;10746;50.178;8.186;2023-02-11T00:48:25;59.87;;;22.67;;
21175;SDS011;10746;50.178;8.186;2023-02-11T00:50:51;62.60;;;23.70;;
21175;SDS011;10746;50.178;8.186;2023-02-11T00:53:18;61.40;;;23.43;;
21175;SDS011;10746;50.178;8.186;2023-02-11T00:55:45;62.83;;;24.43;;
21175;SDS011;10746;50.178;8.186;2023-02-11T00:58:13;62.43;;;23.33;;
21175;SDS011;10746;50.178;8.186;2023-02-11T01:00:40;56.93;;;23.70;;
21175;SDS011;10746;50.178;8.186;2023-02-11T01:03:06;59.80;;;22.90;;
21175;SDS011;10746;50.178;8.186;2023-02-11T01:05:33;58.80;;;23.17;;
21175;SDS011;10746;50.178;8.186;2023-02-11T01:08:00;64.57;;;24.70;;
21175;SDS011;10746;50.178;8.186;2023-02-11T01:10:27;61.80;;;23.80;;
21175;SDS011;10746;50.178;8.186;2023-02-11T01:12:54;64.10;;;23.40;;
21175;SDS011;10746;50.178;8.186;2023-02-11T01:15:22;55.70;;;23.10;;
21175;SDS011;10746;50.178;8.186;2023-02-11T01:17:49;56.37;;;22.50;;
21175;SDS011;10746;50.178;8.186;2023-02-11T01:20:17;66.03;;;24.50;;
21175;SDS011;10746;50.178;8.186;2023-02-11T01:22:45;53.73;;;22.60;;
21175;SDS011;10746;50.178;8.186;2023-02-11T01:25:12;59.13;;;22.97;;
21175;SDS011;10746;50.178;8.186;2023-02-11T01:27:39;62.17;;;23.70;;
21175;SDS011;10746;50.178;8.186;2023-02-11T01:30:07;57.77;;;23.03;;
21175;SDS011;10746;50.178;8.186;2023-02-11T01:32:36;56.33;;;23.63;;
21175;SDS011;10746;50.178;8.186;2023-02-11T01:35:03;60.57;;;24.53;;
21175;SDS011;10746;50.178;8.186;2023-02-11T01:37:31;57.23;;;23.43;;
21175;SDS011;10746;50.178;8.186;2023-02-11T01:39:59;56.23;;;23.17;;
21175;SDS011;10746;50.178;8.186;2023-02-11T01:42:26;54.93;;;23.17;;
21175;SDS011;10746;50.178;8.186;2023-02-11T01:44:54;60.43;;;23.60;;
21175;SDS011;10746;50.178;8.186;2023-02-11T01:47:22;59.60;;;24.37;;
21175;SDS011;10746;50.178;8.186;2023-02-11T01:49:51;57.93;;;22.90;;
21175;SDS011;10746;50.178;8.186;2023-02-11T01:52:22;58.13;;;23.67;;
21175;SDS011;10746;50.178;8.186;2023-02-11T01:54:51;55.97;;;23.00;;
21175;SDS011;10746;50.178;8.186;2023-02-11T01:57:38;58.90;;;23.77;;
21175;SDS011;10746;50.178;8.186;2023-02-11T02:00:10;59.50;;;23.90;;
21175;SDS011;10746;50.178;8.186;2023-02-11T02:02:42;65.07;;;23.70;;
21175;SDS011;10746;50.178;8.186;2023-02-11T02:05:18;55.83;;;24.03;;
21175;SDS011;10746;50.178;8.186;2023-02-11T02:07:51;60.80;;;24.40;;
21175;SDS011;10746;50.178;8.186;2023-02-11T02:10:25;55.27;;;22.50;;
21175;SDS011;10746;50.178;8.186;2023-02-11T02:12:53;59.83;;;23.33;;
21175;SDS011;10746;50.178;8.186;2023-02-11T02:15:23;61.27;;;23.53;;
21175;SDS011;10746;50.178;8.186;2023-02-11T02:17:54;54.33;;;22.67;;
21175;SDS011;10746;50.178;8.186;2023-02-11T02:20:42;57.77;;;23.13;;
21175;SDS011;10746;50.178;8.186;2023-02-11T02:23:36;58.67;;;23.33;;
21175;SDS011;10746;50.178;8.186;2023-02-11T02:26:32;55.50;;;23.13;;
21175;SDS011;10746;50.178;8.186;2023-02-11T02:32:30;51.20;;;22.50;;
21175;SDS011;10746;50.178;8.186;2023-02-11T02:35:08;50.10;;;22.30;;
21175;SDS011;10746;50.178;8.186;2023-02-11T02:37:40;58.30;;;23.17;;
21175;SDS011;10746;50.178;8.186;2023-02-11T02:40:13;61.03;;;24.00;;
21175;SDS011;10746;50.178;8.186;2023-02-11T02:42:45;54.23;;;21.67;;
21175;SDS011;10746;50.178;8.186;2023-02-11T02:45:13;57.60;;;22.33;;
21175;SDS011;10746;50.178;8.186;2023-02-11T02:47:41;51.80;;;22.13;;
21175;SDS011;10746;50.178;8.186;2023-02-11T02:50:08;56.93;;;23.73;;
21175;SDS011;10746;50.178;8.186;2023-02-11T02:52:40;66.23;;;24.43;;
21175;SDS011;10746;50.178;8.186;2023-02-11T02:55:18;56.80;;;22.13;;
21175;SDS011;10746;50.178;8.186;2023-02-11T02:58:03;56.63;;;23.63;;
21175;SDS011;10746;50.178;8.186;2023-02-11T03:00:42;61.60;;;24.03;;
21175;SDS011;10746;50.178;8.186;2023-02-11T03:03:21;57.00;;;22.93;;
21175;SDS011;10746;50.178;8.186;2023-02-11T03:05:54;56.60;;;22.43;;
21175;SDS011;10746;50.178;8.186;2023-02-11T03:08:28;56.13;;;24.10;;
21175;SDS011;10746;50.178;8.186;2023-02-11T03:10:58;60.00;;;23.27;;
21175;SDS011;10746;50.178;8.186;2023-02-11T03:13:28;51.10;;;22.23;;
21175;SDS011;10746;50.178;8.186;2023-02-11T03:15:59;52.83;;;21.57;;
21175;SDS011;10746;50.178;8.186;2023-02-11T03:18:34;57.67;;;22.77;;
21175;SDS011;10746;50.178;8.186;2023-02-11T03:21:02;53.30;;;22.30;;
21175;SDS011;10746;50.178;8.186;2023-02-11T03:23:34;59.70;;;22.40;;
21175;SDS011;10746;50.178;8.186;2023-02-11T03:26:07;55.57;;;21.90;;
21175;SDS011;10746;50.178;8.186;2023-02-11T03:28:40;54.03;;;22.23;;
21175;SDS011;10746;50.178;8.186;2023-02-11T03:31:11;58.40;;;23.00;;
21175;SDS011;10746;50.178;8.186;2023-02-11T03:33:47;56.13;;;22.57;;
21175;SDS011;10746;50.178;8.186;2023-02-11T03:36:19;51.60;;;22.20;;
21175;SDS011;10746;50.178;8.186;2023-02-11T03:38:51;53.70;;;21.57;;
21175;SDS011;10746;50.178;8.186;2023-02-11T03:41:22;48.33;;;20.20;;
21175;SDS011;10746;50.178;8.186;2023-02-11T03:43:50;52.80;;;21.77;;
21175;SDS011;10746;50.178;8.186;2023-02-11T03:46:21;47.90;;;19.97;;
21175;SDS011;10746;50.178;8.186;2023-02-11T03:48:54;56.93;;;21.67;;
21175;SDS011;10746;50.178;8.186;2023-02-11T03:51:23;58.97;;;21.90;;
21175;SDS011;10746;50.178;8.186;2023-02-11T03:53:54;59.63;;;21.13;;
21175;SDS011;10746;50.178;8.186;2023-02-11T03:56:25;59.80;;;23.20;;
21175;SDS011;10746;50.178;8.186;2023-02-11T03:58:54;51.00;;;20.77;;
21175;SDS011;10746;50.178;8.186;2023-02-11T04:01:21;50.67;;;21.37;;
21175;SDS011;10746;50.178;8.186;2023-02-11T04:03:48;60.20;;;22.00;;
21175;SDS011;10746;50.178;8.186;2023-02-11T04:06:16;56.87;;;22.90;;
21175;SDS011;10746;50.178;8.186;2023-02-11T04:08:43;56.53;;;23.07;;
21175;SDS011;10746;50.178;8.186;2023-02-11T04:11:10;52.90;;;22.57;;
21175;SDS011;10746;50.178;8.186;2023-02-11T04:13:36;56.77;;;22.63;;
21175;SDS011;10746;50.178;8.186;2023-02-11T04:16:03;59.77;;;23.83;;
21175;SDS011;10746;50.178;8.186;2023-02-11T04:18:30;54.47;;;22.50;;
21175;SDS011;10746;50.178;8.186;2023-02-11T04:20:57;56.17;;;23.43;;
21175;SDS011;10746;50.178;8.186;2023-02-11T04:23:25;59.80;;;22.53;;
21175;SDS011;10746;50.178;8.186;2023-02-11T04:25:52;60.80;;;23.47;;
21175;SDS011;10746;50.178;8.186;2023-02-11T04:28:19;60.60;;;24.77;;
21175;SDS011;10746;50.178;8.186;2023-02-11T04:30:47;56.50;;;22.50;;
21175;SDS011;10746;50.178;8.186;2023-02-11T04:33:14;68.87;;;24.97;;
21175;SDS011;10746;50.178;8.186;2023-02-11T04:35:41;59.77;;;23.73;;
21175;SDS011;10746;50.178;8.186;2023-02-11T04:38:08;58.27;;;22.43;;
21175;SDS011;10746;50.178;8.186;2023-02-11T04:40:36;65.27;;;25.13;;
21175;SDS011;10746;50.178;8.186;2023-02-11T04:43:02;70.23;;;25.50;;
21175;SDS011;10746;50.178;8.186;2023-02-11T04:45:30;58.70;;;24.23;;
21175;SDS011;10746;50.178;8.186;2023-02-11T04:47:56;58.93;;;23.27;;
21175;SDS011;10746;50.178;8.186;2023-02-11T04:50:23;61.50;;;25.20;;
21175;SDS011;10746;50.178;8.186;2023-02-11T04:52:50;55.73;;;23.50;;
21175;SDS011;10746;50.178;8.186;2023-02-11T04:55:17;61.63;;;23.70;;
21175;SDS011;10746;50.178;8.186;2023-02-11T04:57:45;56.70;;;22.80;;
21175;SDS011;10746;50.178;8.186;2023-02-11T05:00:13;61.57;;;25.17;;
21175;SDS011;10746;50.178;8.186;2023-02-11T05:02:40;58.27;;;23.00;;
21175;SDS011;10746;50.178;8.186;2023-02-11T05:05:07;53.60;;;22.53;;
21175;SDS011;10746;50.178;8.186;2023-02-11T05:07:34;58.13;;;22.90;;
21175;SDS011;10746;50.178;8.186;2023-02-11T05:10:00;59.13;;;22.87;;
21175;SDS011;10746;50.178;8.186;2023-02-11T05:12:27;57.87;;;23.73;;
21175;SDS011;10746;50.178;8.186;2023-02-11T05:14:55;67.30;;;24.47;;
21175;SDS011;10746;50.178;8.186;2023-02-11T05:17:22;61.80;;;24.10;;
21175;SDS011;10746;50.178;8.186;2023-02-11T05:19:49;65.07;;;23.97;;
21175;SDS011;10746;50.178;8.186;2023-02-11T05:22:15;56.73;;;22.67;;
21175;SDS011;10746;50.178;8.186;2023-02-11T05:24:42;66.50;;;24.27;;
21175;SDS011;10746;50.178;8.186;2023-02-11T05:27:09;61.97;;;25.07;;
21175;SDS011;10746;50.178;8.186;2023-02-11T05:29:36;61.43;;;23.17;;
21175;SDS011;10746;50.178;8.186;2023-02-11T05:32:04;58.53;;;24.67;;
21175;SDS011;10746;50.178;8.186;2023-02-11T05:34:33;69.00;;;26.03;;
21175;SDS011;10746;50.178;8.186;2023-02-11T05:37:00;70.87;;;25.30;;
21175;SDS011;10746;50.178;8.186;2023-02-11T05:39:26;64.90;;;24.37;;
21175;SDS011;10746;50.178;8.186;2023-02-11T05:41:53;62.40;;;23.87;;
21175;SDS011;10746;50.178;8.186;2023-02-11T05:44:20;63.07;;;25.93;;
21175;SDS011;10746;50.178;8.186;2023-02-11T05:46:47;68.67;;;26.90;;
21175;SDS011;10746;50.178;8.186;2023-02-11T05:49:16;71.37;;;26.33;;
21175;SDS011;10746;50.178;8.186;2023-02-11T05:51:44;75.10;;;26.80;;
21175;SDS011;10746;50.178;8.186;2023-02-11T05:54:11;70.73;;;26.87;;
21175;SDS011;10746;50.178;8.186;2023-02-11T05:56:38;73.77;;;27.70;;
21175;SDS011;10746;50.178;8.186;2023-02-11T05:59:05;78.77;;;27.13;;
21175;SDS011;10746;50.178;8.186;2023-02-11T06:01:31;79.23;;;28.33;;
21175;SDS011;10746;50.178;8.186;2023-02-11T06:03:58;72.43;;;27.20;;
21175;SDS011;10746;50.178;8.186;2023-02-11T06:06:26;72.57;;;28.13;;
21175;SDS011;10746;50.178;8.186;2023-02-11T06:08:53;77.40;;;27.03;;
21175;SDS011;10746;50.178;8.186;2023-02-11T06:11:20;76.33;;;28.47;;
21175;SDS011;10746;50.178;8.186;2023-02-11T06:13:47;78.37;;;29.20;;
21175;SDS011;10746;50.178;8.186;2023-02-11T06:16:14;78.77;;;28.73;;
21175;SDS011;10746;50.178;8.186;2023-02-11T06:18:41;77.73;;;29.17;;
21175;SDS011;10746;50.178;8.186;2023-02-11T06:21:08;78.47;;;29.40;;
21175;SDS011;10746;50.178;8.186;2023-02-11T06:23:38;87.03;;;29.20;;
21175;SDS011;10746;50.178;8.186;2023-02-11T06:26:05;77.10;;;28.60;;
21175;SDS011;10746;50.178;8.186;2023-02-11T06:28:33;85.67;;;30.00;;
21175;SDS011;10746;50.178;8.186;2023-02-11T06:31:03;81.63;;;27.93;;
21175;SDS011;10746;50.178;8.186;2023-02-11T06:33:31;81.47;;;28.53;;
21175;SDS011;10746;50.178;8.186;2023-02-11T06:35:58;86.13;;;30.97;;
21175;SDS011;10746;50.178;8.186;2023-02-11T06:38:25;92.83;;;31.87;;
21175;SDS011;10746;50.178;8.186;2023-02-11T06:40:53;82.37;;;30.10;;
21175;SDS011;10746;50.178;8.186;2023-02-11T06:43:20;85.33;;;31.13;;
21175;SDS011;10746;50.178;8.186;2023-02-11T06:45:51;80.60;;;30.33;;
21175;SDS011;10746;50.178;8.186;2023-02-11T06:48:18;84.07;;;29.07;;
21175;SDS011;10746;50.178;8.186;2023-02-11T06:50:45;82.40;;;29.70;;
21175;SDS011;10746;50.178;8.186;2023-02-11T06:53:12;89.40;;;30.13;;
21175;SDS011;10746;50.178;8.186;2023-02-11T06:55:39;89.43;;;30.37;;
21175;SDS011;10746;50.178;8.186;2023-02-11T06:58:07;90.50;;;30.40;;
21175;SDS011;10746;50.178;8.186;2023-02-11T07:00:33;76.87;;;29.47;;
21175;SDS011;10746;50.178;8.186;2023-02-11T07:03:01;82.17;;;30.17;;
21175;SDS011;10746;50.178;8.186;2023-02-11T07:05:28;79.43;;;28.87;;
21175;SDS011;10746;50.178;8.186;2023-02-11T07:07:55;89.33;;;30.33;;
21175;SDS011;10746;50.178;8.186;2023-02-11T07:10:22;83.33;;;29.97;;
21175;SDS011;10746;50.178;8.186;2023-02-11T07:12:49;83.47;;;29.47;;
21175;SDS011;10746;50.178;8.186;2023-02-11T07:15:17;80.00;;;30.27;;
21175;SDS011;10746;50.178;8.186;2023-02-11T07:17:44;81.13;;;29.97;;
21175;SDS011;10746;50.178;8.186;2023-02-11T07:20:10;76.20;;;29.40;;
21175;SDS011;10746;50.178;8.186;2023-02-11T07:22:38;81.37;;;30.67;;
21175;SDS011;10746;50.178;8.186;2023-02-11T07:25:05;90.03;;;36.35;;
21175;SDS011;10746;50.178;8.186;2023-02-11T07:27:32;85.93;;;30.80;;
21175;SDS011;10746;50.178;8.186;2023-02-11T07:29:59;81.67;;;31.50;;
21175;SDS011;10746;50.178;8.186;2023-02-11T07:32:27;73.67;;;27.57;;
21175;SDS011;10746;50.178;8.186;2023-02-11T07:34:54;75.17;;;29.30;;
21175;SDS011;10746;50.178;8.186;2023-02-11T07:37:20;70.17;;;27.03;;
21175;SDS011;10746;50.178;8.186;2023-02-11T07:39:47;73.33;;;27.90;;
21175;SDS011;10746;50.178;8.186;2023-02-11T07:42:14;75.50;;;29.60;;
21175;SDS011;10746;50.178;8.186;2023-02-11T07:44:41;80.07;;;28.40;;
21175;SDS011;10746;50.178;8.186;2023-02-11T07:47:07;76.93;;;28.30;;
21175;SDS011;10746;50.178;8.186;2023-02-11T07:49:36;72.00;;;27.73;;
21175;SDS011;10746;50.178;8.186;2023-02-11T07:52:02;72.30;;;27.53;;
21175;SDS011;10746;50.178;8.186;2023-02-11T07:54:29;67.67;;;26.63;;
21175;SDS011;10746;50.178;8.186;2023-02-11T07:56:56;73.53;;;28.37;;
21175;SDS011;10746;50.178;8.186;2023-02-11T07:59:23;77.00;;;32.97;;
21175;SDS011;10746;50.178;8.186;2023-02-11T08:01:51;62.73;;;26.93;;
21175;SDS011;10746;50.178;8.186;2023-02-11T08:04:18;64.30;;;26.43;;
21175;SDS011;10746;50.178;8.186;2023-02-11T08:06:46;64.53;;;26.67;;
21175;SDS011;10746;50.178;8.186;2023-02-11T08:09:13;59.30;;;22.73;;
21175;SDS011;10746;50.178;8.186;2023-02-11T08:11:41;54.80;;;22.07;;
21175;SDS011;10746;50.178;8.186;2023-02-11T08:14:08;65.63;;;25.47;;
21175;SDS011;10746;50.178;8.186;2023-02-11T08:16:36;149.63;;;48.77;;
21175;SDS011;10746;50.178;8.186;2023-02-11T08:19:04;176.27;;;57.77;;
21175;SDS011;10746;50.178;8.186;2023-02-11T08:21:35;60.13;;;22.13;;
21175;SDS011;10746;50.178;8.186;2023-02-11T08:24:03;57.13;;;23.83;;
21175;SDS011;10746;50.178;8.186;2023-02-11T08:26:31;80.30;;;30.57;;
21175;SDS011;10746;50.178;8.186;2023-02-11T08:29:00;121.17;;;44.63;;
21175;SDS011;10746;50.178;8.186;2023-02-11T08:31:29;55.90;;;24.07;;
21175;SDS011;10746;50.178;8.186;2023-02-11T08:33:58;56.00;;;23.07;;
21175;SDS011;10746;50.178;8.186;2023-02-11T08:36:27;54.27;;;23.80;;
21175;SDS011;10746;50.178;8.186;2023-02-11T08:38:56;60.90;;;26.07;;
21175;SDS011;10746;50.178;8.186;2023-02-11T08:41:28;56.03;;;23.10;;
21175;SDS011;10746;50.178;8.186;2023-02-11T08:43:54;63.00;;;25.30;;
21175;SDS011;10746;50.178;8.186;2023-02-11T08:46:21;64.47;;;27.00;;
21175;SDS011;10746;50.178;8.186;2023-02-11T08:48:48;54.07;;;22.77;;
21175;SDS011;10746;50.178;8.186;2023-02-11T08:51:16;53.47;;;21.67;;
21175;SDS011;10746;50.178;8.186;2023-02-11T08:53:44;59.00;;;24.10;;
21175;SDS011;10746;50.178;8.186;2023-02-11T08:56:12;47.67;;;21.90;;
21175;SDS011;10746;50.178;8.186;2023-02-11T08:58:42;54.87;;;22.80;;
21175;SDS011;10746;50.178;8.186;2023-02-11T09:01:09;56.90;;;20.30;;
21175;SDS011;10746;50.178;8.186;2023-02-11T09:03:36;60.10;;;21.50;;
21175;SDS011;10746;50.178;8.186;2023-02-11T09:06:03;51.83;;;21.10;;
21175;SDS011;10746;50.178;8.186;2023-02-11T09:08:32;46.93;;;21.27;;
21175;SDS011;10746;50.178;8.186;2023-02-11T09:10:59;57.93;;;21.77;;
21175;SDS011;10746;50.178;8.186;2023-02-11T09:13:26;49.60;;;21.63;;
21175;SDS011;10746;50.178;8.186;2023-02-11T09:15:54;45.73;;;19.97;;
21175;SDS011;10746;50.178;8.186;2023-02-11T09:18:21;47.53;;;21.67;;
21175;SDS011;10746;50.178;8.186;2023-02-11T09:20:47;54.77;;;22.27;;
21175;SDS011;10746;50.178;8.186;2023-02-11T09:23:14;49.87;;;20.00;;
21175;SDS011;10746;50.178;8.186;2023-02-11T09:25:41;48.27;;;20.80;;
21175;SDS011;10746;50.178;8.186;2023-02-11T09:28:08;48.30;;;20.07;;
21175;SDS011;10746;50.178;8.186;2023-02-11T09:30:35;42.10;;;19.87;;
21175;SDS011;10746;50.178;8.186;2023-02-11T09:33:04;48.13;;;19.93;;
21175;SDS011;10746;50.178;8.186;2023-02-11T09:35:31;48.07;;;19.83;;
21175;SDS011;10746;50.178;8.186;2023-02-11T09:37:58;51.57;;;22.00;;
21175;SDS011;10746;50.178;8.186;2023-02-11T09:40:25;45.03;;;18.63;;
21175;SDS011;10746;50.178;8.186;2023-02-11T09:42:52;48.73;;;21.70;;
21175;SDS011;10746;50.178;8.186;2023-02-11T09:45:26;57.67;;;21.90;;
21175;SDS011;10746;50.178;8.186;2023-02-11T09:47:56;47.20;;;20.17;;
21175;SDS011;10746;50.178;8.186;2023-02-11T09:50:27;47.97;;;19.70;;
21175;SDS011;10746;50.178;8.186;2023-02-11T09:52:57;49.80;;;20.23;;
21175;SDS011;10746;50.178;8.186;2023-02-11T09:55:28;48.93;;;19.87;;
21175;SDS011;10746;50.178;8.186;2023-02-11T09:57:58;51.43;;;20.37;;
21175;SDS011;10746;50.178;8.186;2023-02-11T10:00:27;47.67;;;19.93;;
21175;SDS011;10746;50.178;8.186;2023-02-11T10:03:07;42.60;;;19.33;;
21175;SDS011;10746;50.178;8.186;2023-02-11T10:06:08;49.27;;;20.13;;
21175;SDS011;10746;50.178;8.186;2023-02-11T10:08:46;55.03;;;20.60;;
21175;SDS011;10746;50.178;8.186;2023-02-11T10:11:22;46.83;;;20.43;;
21175;SDS011;10746;50.178;8.186;2023-02-11T10:13:57;55.53;;;20.90;;
21175;SDS011;10746;50.178;8.186;2023-02-11T10:16:39;50.80;;;21.37;;
21175;SDS011;10746;50.178;8.186;2023-02-11T10:19:20;48.30;;;20.17;;
21175;SDS011;10746;50.178;8.186;2023-02-11T10:22:02;83.07;;;29.90;;
21175;SDS011;10746;50.178;8.186;2023-02-11T10:24:34;133.60;;;48.07;;
21175;SDS011;10746;50.178;8.186;2023-02-11T10:27:03;53.60;;;19.93;;
21175;SDS011;10746;50.178;8.186;2023-02-11T10:29:39;54.63;;;21.40;;
21175;SDS011;10746;50.178;8.186;2023-02-11T10:32:12;63.13;;;21.97;;
21175;SDS011;10746;50.178;8.186;2023-02-11T10:34:48;61.37;;;25.97;;
21175;SDS011;10746;50.178;8.186;2023-02-11T10:37:18;49.07;;;21.07;;
21175;SDS011;10746;50.178;8.186;2023-02-11T10:39:45;54.03;;;22.27;;
21175;SDS011;10746;50.178;8.186;2023-02-11T10:42:12;60.10;;;21.30;;
21175;SDS011;10746;50.178;8.186;2023-02-11T10:44:40;48.37;;;20.67;;
21175;SDS011;10746;50.178;8.186;2023-02-11T10:47:16;56.67;;;20.97;;
21175;SDS011;10746;50.178;8.186;2023-02-11T10:49:47;58.20;;;22.77;;
21175;SDS011;10746;50.178;8.186;2023-02-11T10:52:17;60.53;;;22.33;;
21175;SDS011;10746;50.178;8.186;2023-02-11T10:54:58;49.87;;;20.50;;
21175;SDS011;10746;50.178;8.186;2023-02-11T10:57:29;51.07;;;20.17;;
21175;SDS011;10746;50.178;8.186;2023-02-11T10:59:59;51.73;;;20.50;;
21175;SDS011;10746;50.178;8.186;2023-02-11T11:02:32;52.60;;;20.50;;
21175;SDS011;10746;50.178;8.186;2023-02-11T11:05:03;50.63;;;21.67;;
21175;SDS011;10746;50.178;8.186;2023-02-11T11:07:41;50.67;;;21.33;;
21175;SDS011;10746;50.178;8.186;2023-02-11T11:12:52;53.57;;;22.37;;
21175;SDS011;10746;50.178;8.186;2023-02-11T11:15:20;50.60;;;21.00;;
21175;SDS011;10746;50.178;8.186;2023-02-11T11:17:48;55.23;;;20.80;;
21175;SDS011;10746;50.178;8.186;2023-02-11T11:20:20;50.03;;;20.43;;
21175;SDS011;10746;50.178;8.186;2023-02-11T11:22:50;52.97;;;20.33;;
21175;SDS011;10746;50.178;8.186;2023-02-11T11:25:20;45.70;;;19.63;;
21175;SDS011;10746;50.178;8.186;2023-02-11T11:27:52;45.30;;;19.63;;
21175;SDS011;10746;50.178;8.186;2023-02-11T11:30:20;45.50;;;19.70;;
21175;SDS011;10746;50.178;8.186;2023-02-11T11:32:50;44.73;;;19.70;;
21175;SDS011;10746;50.178;8.186;2023-02-11T11:35:21;40.73;;;17.93;;
21175;SDS011;10746;50.178;8.186;2023-02-11T11:37:53;44.20;;;18.23;;
21175;SDS011;10746;50.178;8.186;2023-02-11T11:40:22;41.77;;;17.67;;
21175;SDS011;10746;50.178;8.186;2023-02-11T11:43:04;43.03;;;18.00;;
21175;SDS011;10746;50.178;8.186;2023-02-11T11:45:42;39.43;;;17.57;;
21175;SDS011;10746;50.178;8.186;2023-02-11T11:48:20;43.10;;;17.27;;
21175;SDS011;10746;50.178;8.186;2023-02-11T11:50:51;37.67;;;16.57;;
21175;SDS011;10746;50.178;8.186;2023-02-11T11:53:22;46.43;;;17.70;;
21175;SDS011;10746;50.178;8.186;2023-02-11T11:55:56;40.37;;;17.77;;
21175;SDS011;10746;50.178;8.186;2023-02-11T11:58:28;35.70;;;16.23;;
21175;SDS011;10746;50.178;8.186;2023-02-11T12:00:58;37.37;;;16.80;;
21175;SDS011;10746;50.178;8.186;2023-02-11T12:06:30;38.83;;;16.63;;
21175;SDS011;10746;50.178;8.186;2023-02-11T12:09:11;37.73;;;16.27;;
21175;SDS011;10746;50.178;8.186;2023-02-11T12:12:16;35.37;;;16.13;;
21175;SDS011;10746;50.178;8.186;2023-02-11T12:14:54;37.80;;;16.20;;
21175;SDS011;10746;50.178;8.186;2023-02-11T12:17:41;35.60;;;16.67;;
21175;SDS011;10746;50.178;8.186;2023-02-11T12:20:29;39.30;;;17.47;;
21175;SDS011;10746;50.178;8.186;2023-02-11T12:23:06;41.47;;;17.03;;
21175;SDS011;10746;50.178;8.186;2023-02-11T12:25:48;35.70;;;16.03;;
21175;SDS011;10746;50.178;8.186;2023-02-11T12:28:25;35.40;;;16.37;;
21175;SDS011;10746;50.178;8.186;2023-02-11T12:31:01;34.67;;;15.87;;
21175;SDS011;10746;50.178;8.186;2023-02-11T12:33:40;31.13;;;13.43;;
21175;SDS011;10746;50.178;8.186;2023-02-11T12:36:24;24.73;;;11.60;;
21175;SDS011;10746;50.178;8.186;2023-02-11T12:39:05;25.70;;;12.30;;
21175;SDS011;10746;50.178;8.186;2023-02-11T12:41:48;23.97;;;12.17;;
21175;SDS011;10746;50.178;8.186;2023-02-11T12:44:44;23.73;;;11.10;;
21175;SDS011;10746;50.178;8.186;2023-02-11T12:47:22;22.47;;;11.07;;
21175;SDS011;10746;50.178;8.186;2023-02-11T12:50:01;99.53;;;46.63;;
21175;SDS011;10746;50.178;8.186;2023-02-11T12:52:37;28.57;;;13.43;;
21175;SDS011;10746;50.178;8.186;2023-02-11T12:55:18;26.80;;;12.70;;
21175;SDS011;10746;50.178;8.186;2023-02-11T12:57:49;23.13;;;10.90;;
21175;SDS011;10746;50.178;8.186;2023-02-11T13:00:17;27.07;;;11.50;;
21175;SDS011;10746;50.178;8.186;2023-02-11T13:02:49;22.90;;;11.27;;
21175;SDS011;10746;50.178;8.186;2023-02-11T13:05:26;23.70;;;11.67;;
21175;SDS011;10746;50.178;8.186;2023-02-11T13:07:57;22.77;;;10.50;;
21175;SDS011;10746;50.178;8.186;2023-02-11T13:10:31;27.83;;;10.60;;
21175;SDS011;10746;50.178;8.186;2023-02-11T13:13:02;25.00;;;11.73;;
21175;SDS011;10746;50.178;8.186;2023-02-11T13:15:41;25.57;;;12.27;;
21175;SDS011;10746;50.178;8.186;2023-02-11T13:18:12;25.83;;;12.27;;
21175;SDS011;10746;50.178;8.186;2023-02-11T13:20:48;24.37;;;11.87;;
21175;SDS011;10746;50.178;8.186;2023-02-11T13:23:22;26.17;;;12.57;;
21175;SDS011;10746;50.178;8.186;2023-02-11T13:25:56;28.57;;;14.43;;
21175;SDS011;10746;50.178;8.186;2023-02-11T13:28:37;25.83;;;12.03;;
21175;SDS011;10746;50.178;8.186;2023-02-11T13:31:09;33.63;;;12.90;;
21175;SDS011;10746;50.178;8.186;2023-02-11T13:33:40;23.03;;;11.53;;
21175;SDS011;10746;50.178;8.186;2023-02-11T13:36:16;38.10;;;18.00;;
21175;SDS011;10746;50.178;8.186;2023-02-11T13:38:52;30.00;;;15.37;;
21175;SDS011;10746;50.178;8.186;2023-02-11T13:41:25;26.10;;;13.20;;
21175;SDS011;10746;50.178;8.186;2023-02-11T13:44:17;27.67;;;13.60;;
21175;SDS011;10746;50.178;8.186;2023-02-11T13:46:58;28.07;;;13.77;;
21175;SDS011;10746;50.178;8.186;2023-02-11T13:49:31;34.20;;;16.57;;
21175;SDS011;10746;50.178;8.186;2023-02-11T13:52:05;39.33;;;20.87;;
21175;SDS011;10746;50.178;8.186;2023-02-11T13:54:45;30.27;;;16.67;;
21175;SDS011;10746;50.178;8.186;2023-02-11T14:03:29;31.10;;;14.43;;
21175;SDS011;10746;50.178;8.186;2023-02-11T14:06:20;27.33;;;13.17;;
21175;SDS011;10746;50.178;8.186;2023-02-11T14:12:22;29.00;;;12.63;;
21175;SDS011;10746;50.178;8.186;2023-02-11T14:14:59;30.43;;;12.67;;
21175;SDS011;10746;50.178;8.186;2023-02-11T14:17:28;30.03;;;13.40;;
21175;SDS011;10746;50.178;8.186;2023-02-11T14:19:58;25.60;;;12.13;;
21175;SDS011;10746;50.178;8.186;2023-02-11T14:22:28;32.60;;;15.00;;
21175;SDS011;10746;50.178;8.186;2023-02-11T14:25:14;27.40;;;12.60;;
21175;SDS011;10746;50.178;8.186;2023-02-11T14:27:45;33.93;;;13.97;;
21175;SDS011;10746;50.178;8.186;2023-02-11T14:30:45;40.77;;;16.87;;
21175;SDS011;10746;50.178;8.186;2023-02-11T14:33:37;33.00;;;13.70;;
21175;SDS011;10746;50.178;8.186;2023-02-11T14:36:37;30.07;;;13.23;;
21175;SDS011;10746;50.178;8.186;2023-02-11T14:39:25;30.63;;;12.87;;
21175;SDS011;10746;50.178;8.186;2023-02-11T14:42:02;31.77;;;13.30;;
21175;SDS011;10746;50.178;8.186;2023-02-11T14:44:30;30.20;;;13.53;;
21175;SDS011;10746;50.178;8.186;2023-02-11T14:46:58;28.40;;;13.37;;
21175;SDS011;10746;50.178;8.186;2023-02-11T14:49:26;32.07;;;13.23;;
21175;SDS011;10746;50.178;8.186;2023-02-11T14:51:58;36.87;;;14.10;;
21175;SDS011;10746;50.178;8.186;2023-02-11T14:54:29;25.93;;;12.70;;
21175;SDS011;10746;50.178;8.186;2023-02-11T14:57:04;32.80;;;13.20;;
21175;SDS011;10746;50.178;8.186;2023-02-11T14:59:32;30.83;;;12.97;;
21175;SDS011;10746;50.178;8.186;2023-02-11T15:01:59;25.43;;;12.27;;